sensor_id;sensor_type;location;lat;lon;timestamp;pressure;altitude;pressure_sealevel;temperature;humidity
26978;BME280;56314;48.088;11.642;2022-08-20T00:00:35;95311.66;;;17.01;100.00
26978;BME280;56314;48.088;11.642;2022-08-20T00:03:07;95317.28;;;16.98;100.00
26978;BME280;56314;48.088;11.642;2022-08-20T00:05:38;95319.91;;;16.98;100.00
26978;BME280;56314;48.088;11.642;2022-08-20T00:08:04;95314.31;;;17.01;100.00
26978;BME280;56314;48.088;11.642;2022-08-20T00:10:31;95323.72;;;16.95;100.00
26978;BME280;56314;48.088;11.642;2022-08-20T00:12:57;95313.72;;;16.89;100.00
26978;BME280;56314;48.088;11.642;2022-08-20T00:15:27;95321.97;;;16.86;100.00
26978;BME280;56314;48.088;11.642;2022-08-20T00:17:53;95322.47;;;16.81;100.00
26978;BME280;56314;48.088;11.642;2022-08-20T00:20:21;95322.31;;;16.83;100.00
26978;BME280;56314;48.088;11.642;2022-08-20T00:22:47;95318.34;;;16.87;100.00
26978;BME280;56314;48.088;11.642;2022-08-20T00:25:13;95317.84;;;16.83;100.00
26978;BME280;56314;48.088;11.642;2022-08-20T00:27:39;95313.00;;;16.78;100.00
26978;BME280;56314;48.088;11.642;2022-08-20T00:30:07;95319.13;;;16.79;100.00
26978;BME280;56314;48.088;11.642;2022-08-20T00:32:55;95313.31;;;16.75;100.00
26978;BME280;56314;48.088;11.642;2022-08-20T00:35:26;95316.34;;;16.81;100.00
26978;BME280;56314;48.088;11.642;2022-08-20T00:37:53;95315.16;;;16.75;100.00
26978;BME280;56314;48.088;11.642;2022-08-20T00:40:22;95320.13;;;16.78;100.00
26978;BME280;56314;48.088;11.642;2022-08-20T00:42:53;95323.94;;;16.75;100.00
26978;BME280;56314;48.088;11.642;2022-08-20T00:45:20;95324.91;;;16.74;100.00
26978;BME280;56314;48.088;11.642;2022-08-20T00:47:45;95321.97;;;16.77;100.00
26978;BME280;56314;48.088;11.642;2022-08-20T00:50:15;95325.91;;;16.73;100.00
26978;BME280;56314;48.088;11.642;2022-08-20T00:52:44;95326.88;;;16.72;100.00
26978;BME280;56314;48.088;11.642;2022-08-20T00:55:12;95326.88;;;16.72;100.00
26978;BME280;56314;48.088;11.642;2022-08-20T00:57:45;95333.03;;;16.73;100.00
26978;BME280;56314;48.088;11.642;2022-08-20T01:00:16;95330.91;;;16.76;100.00
26978;BME280;56314;48.088;11.642;2022-08-20T01:02:42;95333.38;;;16.78;100.00
26978;BME280;56314;48.088;11.642;2022-08-20T01:05:08;95331.56;;;16.78;100.00
26978;BME280;56314;48.088;11.642;2022-08-20T01:07:35;95336.50;;;16.73;100.00
26978;BME280;56314;48.088;11.642;2022-08-20T01:10:06;95337.66;;;16.71;100.00
26978;BME280;56314;48.088;11.642;2022-08-20T01:12:31;95335.38;;;16.76;100.00
26978;BME280;56314;48.088;11.642;2022-08-20T01:14:59;95339.69;;;16.77;100.00
26978;BME280;56314;48.088;11.642;2022-08-20T01:17:29;95343.66;;;16.73;100.00
26978;BME280;56314;48.088;11.642;2022-08-20T01:20:10;95346.13;;;16.74;100.00
26978;BME280;56314;48.088;11.642;2022-08-20T01:28:46;95349.25;;;16.70;100.00
26978;BME280;56314;48.088;11.642;2022-08-20T01:31:17;95338.66;;;16.70;100.00
26978;BME280;56314;48.088;11.642;2022-08-20T01:33:44;95338.34;;;16.73;100.00
26978;BME280;56314;48.088;11.642;2022-08-20T01:36:10;95340.31;;;16.71;100.00
26978;BME280;56314;48.088;11.642;2022-08-20T01:38:37;95331.53;;;16.70;100.00
26978;BME280;56314;48.088;11.642;2022-08-20T01:43:47;95339.81;;;16.67;100.00
26978;BME280;56314;48.088;11.642;2022-08-20T01:46:13;95348.09;;;16.72;100.00
26978;BME280;56314;48.088;11.642;2022-08-20T01:48:40;95341.97;;;16.72;100.00
26978;BME280;56314;48.088;11.642;2022-08-20T01:51:14;95342.63;;;16.66;100.00
26978;BME280;56314;48.088;11.642;2022-08-20T01:53:42;95343.44;;;16.66;100.00
26978;BME280;56314;48.088;11.642;2022-08-20T01:56:10;95339.81;;;16.67;100.00
26978;BME280;56314;48.088;11.642;2022-08-20T01:58:39;95348.75;;;16.66;100.00
26978;BME280;56314;48.088;11.642;2022-08-20T02:01:05;95334.97;;;16.62;100.00
26978;BME280;56314;48.088;11.642;2022-08-20T02:03:31;95343.91;;;16.61;100.00
26978;BME280;56314;48.088;11.642;2022-08-20T02:06:00;95340.75;;;16.58;100.00
26978;BME280;56314;48.088;11.642;2022-08-20T02:08:26;95343.53;;;16.56;100.00
26978;BME280;56314;48.088;11.642;2022-08-20T02:10:51;95346.19;;;16.56;100.00
26978;BME280;56314;48.088;11.642;2022-08-20T02:13:17;95341.06;;;16.55;100.00
26978;BME280;56314;48.088;11.642;2022-08-20T02:15:43;95352.66;;;16.54;100.00
26978;BME280;56314;48.088;11.642;2022-08-20T02:18:12;95350.16;;;16.52;100.00
26978;BME280;56314;48.088;11.642;2022-08-20T02:20:38;95350.16;;;16.52;100.00
26978;BME280;56314;48.088;11.642;2022-08-20T02:23:04;95358.13;;;16.52;100.00
26978;BME280;56314;48.088;11.642;2022-08-20T02:25:32;95355.47;;;16.52;100.00
26978;BME280;56314;48.088;11.642;2022-08-20T02:28:00;95365.53;;;16.49;100.00
26978;BME280;56314;48.088;11.642;2022-08-20T02:30:30;95358.94;;;16.53;100.00
26978;BME280;56314;48.088;11.642;2022-08-20T02:32:59;95362.22;;;16.46;100.00
26978;BME280;56314;48.088;11.642;2022-08-20T02:35:25;95358.22;;;16.42;100.00
26978;BME280;56314;48.088;11.642;2022-08-20T02:37:51;95364.50;;;16.41;100.00
26978;BME280;56314;48.088;11.642;2022-08-20T02:40:21;95361.53;;;16.44;100.00
26978;BME280;56314;48.088;11.642;2022-08-20T02:42:48;95360.69;;;16.44;100.00
26978;BME280;56314;48.088;11.642;2022-08-20T02:45:16;95364.50;;;16.41;100.00
26978;BME280;56314;48.088;11.642;2022-08-20T02:47:43;95359.88;;;16.43;100.00
26978;BME280;56314;48.088;11.642;2022-08-20T02:50:17;95363.50;;;16.42;100.00
26978;BME280;56314;48.088;11.642;2022-08-20T02:52:42;95359.19;;;16.41;100.00
26978;BME280;56314;48.088;11.642;2022-08-20T02:55:08;95354.88;;;16.40;100.00
26978;BME280;56314;48.088;11.642;2022-08-20T02:57:35;95359.38;;;16.40;100.00
26978;BME280;56314;48.088;11.642;2022-08-20T03:00:00;95353.38;;;16.38;100.00
26978;BME280;56314;48.088;11.642;2022-08-20T03:02:26;95360.50;;;16.37;100.00
26978;BME280;56314;48.088;11.642;2022-08-20T03:04:52;95363.13;;;16.37;100.00
26978;BME280;56314;48.088;11.642;2022-08-20T03:07:17;95359.38;;;16.40;100.00
26978;BME280;56314;48.088;11.642;2022-08-20T03:09:43;95362.84;;;16.40;100.00
26978;BME280;56314;48.088;11.642;2022-08-20T03:12:08;95362.31;;;16.37;100.00
26978;BME280;56314;48.088;11.642;2022-08-20T03:14:34;95372.91;;;16.37;100.00
26978;BME280;56314;48.088;11.642;2022-08-20T03:17:00;95374.72;;;16.36;100.00
26978;BME280;56314;48.088;11.642;2022-08-20T03:19:26;95373.22;;;16.34;100.00
26978;BME280;56314;48.088;11.642;2022-08-20T03:21:51;95376.72;;;16.34;100.00
26978;BME280;56314;48.088;11.642;2022-08-20T03:24:17;95382.66;;;16.36;100.00
26978;BME280;56314;48.088;11.642;2022-08-20T03:26:43;95376.09;;;16.40;100.00
26978;BME280;56314;48.088;11.642;2022-08-20T03:29:08;95380.34;;;16.33;100.00
26978;BME280;56314;48.088;11.642;2022-08-20T03:31:34;95377.38;;;16.36;100.00
26978;BME280;56314;48.088;11.642;2022-08-20T03:33:59;95381.69;;;16.37;100.00
26978;BME280;56314;48.088;11.642;2022-08-20T03:36:26;95378.06;;;16.38;100.00
26978;BME280;56314;48.088;11.642;2022-08-20T03:38:52;95382.66;;;16.36;100.00
26978;BME280;56314;48.088;11.642;2022-08-20T03:41:17;95383.81;;;16.34;100.00
26978;BME280;56314;48.088;11.642;2022-08-20T03:43:43;95384.81;;;16.33;100.00
26978;BME280;56314;48.088;11.642;2022-08-20T03:46:09;95391.47;;;16.37;100.00
26978;BME280;56314;48.088;11.642;2022-08-20T03:48:34;95384.13;;;16.30;100.00
26978;BME280;56314;48.088;11.642;2022-08-20T03:51:00;95393.44;;;16.35;100.00
26978;BME280;56314;48.088;11.642;2022-08-20T03:53:26;95389.28;;;16.32;100.00
26978;BME280;56314;48.088;11.642;2022-08-20T03:55:57;95390.44;;;16.29;100.00
26978;BME280;56314;48.088;11.642;2022-08-20T03:58:26;95390.28;;;16.31;100.00
26978;BME280;56314;48.088;11.642;2022-08-20T04:00:53;95390.94;;;16.33;100.00
26978;BME280;56314;48.088;11.642;2022-08-20T04:03:20;95394.41;;;16.34;100.00
26978;BME280;56314;48.088;11.642;2022-08-20T04:05:47;95397.53;;;16.29;100.00
26978;BME280;56314;48.088;11.642;2022-08-20T04:08:16;95391.25;;;16.30;100.00
26978;BME280;56314;48.088;11.642;2022-08-20T04:10:43;95387.97;;;16.36;100.00
26978;BME280;56314;48.088;11.642;2022-08-20T04:13:10;95402.53;;;16.32;100.00
26978;BME280;56314;48.088;11.642;2022-08-20T04:15:35;95401.69;;;16.31;100.00
26978;BME280;56314;48.088;11.642;2022-08-20T04:18:01;95406.47;;;16.28;100.00
26978;BME280;56314;48.088;11.642;2022-08-20T04:20:31;95404.34;;;16.31;100.00
26978;BME280;56314;48.088;11.642;2022-08-20T04:22:57;95401.22;;;16.36;100.00
26978;BME280;56314;48.088;11.642;2022-08-20T04:25:23;95405.03;;;16.34;100.00
26978;BME280;56314;48.088;11.642;2022-08-20T04:27:48;95408.34;;;16.36;100.00
26978;BME280;56314;48.088;11.642;2022-08-20T04:30:15;95413.94;;;16.33;100.00
26978;BME280;56314;48.088;11.642;2022-08-20T04:32:41;95413.44;;;16.29;100.00
26978;BME280;56314;48.088;11.642;2022-08-20T04:35:09;95413.44;;;16.29;100.00
26978;BME280;56314;48.088;11.642;2022-08-20T04:37:37;95419.19;;;16.24;100.00
26978;BME280;56314;48.088;11.642;2022-08-20T04:40:09;95424.50;;;16.24;100.00
26978;BME280;56314;48.088;11.642;2022-08-20T04:42:54;95420.56;;;16.28;100.00
26978;BME280;56314;48.088;11.642;2022-08-20T04:45:20;95422.22;;;16.29;100.00
26978;BME280;56314;48.088;11.642;2022-08-20T04:47:47;95420.69;;;16.27;100.00
26978;BME280;56314;48.088;11.642;2022-08-20T04:50:13;95417.22;;;16.26;100.00
26978;BME280;56314;48.088;11.642;2022-08-20T04:52:39;95416.25;;;16.27;100.00
26978;BME280;56314;48.088;11.642;2022-08-20T04:55:05;95420.69;;;16.27;100.00
26978;BME280;56314;48.088;11.642;2022-08-20T04:57:31;95422.53;;;16.26;100.00
26978;BME280;56314;48.088;11.642;2022-08-20T04:59:58;95420.00;;;16.25;100.00
26978;BME280;56314;48.088;11.642;2022-08-20T05:02:24;95425.47;;;16.23;100.00
26978;BME280;56314;48.088;11.642;2022-08-20T05:04:49;95422.66;;;16.25;100.00
26978;BME280;56314;48.088;11.642;2022-08-20T05:07:15;95434.78;;;16.27;100.00
26978;BME280;56314;48.088;11.642;2022-08-20T05:09:43;95432.16;;;16.27;100.00
26978;BME280;56314;48.088;11.642;2022-08-20T05:12:09;95436.28;;;16.30;100.00
26978;BME280;56314;48.088;11.642;2022-08-20T05:14:34;95439.09;;;16.28;100.00
26978;BME280;56314;48.088;11.642;2022-08-20T05:17:04;95432.97;;;16.28;100.00
26978;BME280;56314;48.088;11.642;2022-08-20T05:19:30;95424.53;;;16.33;100.00
26978;BME280;56314;48.088;11.642;2022-08-20T05:21:56;95434.31;;;16.32;100.00
26978;BME280;56314;48.088;11.642;2022-08-20T05:24:22;95438.94;;;16.30;100.00
26978;BME280;56314;48.088;11.642;2022-08-20T05:26:48;95449.25;;;16.33;100.00
26978;BME280;56314;48.088;11.642;2022-08-20T05:29:13;95446.44;;;16.35;100.00
26978;BME280;56314;48.088;11.642;2022-08-20T05:31:38;95444.75;;;16.34;100.00
26978;BME280;56314;48.088;11.642;2022-08-20T05:34:06;95445.44;;;16.36;100.00
26978;BME280;56314;48.088;11.642;2022-08-20T05:36:34;95459.38;;;16.38;100.00
26978;BME280;56314;48.088;11.642;2022-08-20T05:38:59;95449.31;;;16.41;100.00
26978;BME280;56314;48.088;11.642;2022-08-20T05:41:25;95456.72;;;16.38;100.00
26978;BME280;56314;48.088;11.642;2022-08-20T05:43:53;95455.75;;;16.39;100.00
26978;BME280;56314;48.088;11.642;2022-08-20T05:46:18;95460.19;;;16.38;100.00
26978;BME280;56314;48.088;11.642;2022-08-20T05:48:44;95460.06;;;16.40;100.00
26978;BME280;56314;48.088;11.642;2022-08-20T05:51:09;95468.00;;;16.40;100.00
26978;BME280;56314;48.088;11.642;2022-08-20T05:53:34;95467.69;;;16.43;100.00
26978;BME280;56314;48.088;11.642;2022-08-20T05:56:02;95468.38;;;16.45;100.00
26978;BME280;56314;48.088;11.642;2022-08-20T05:58:27;95460.28;;;16.46;100.00
26978;BME280;56314;48.088;11.642;2022-08-20T06:00:57;95464.78;;;16.54;100.00
26978;BME280;56314;48.088;11.642;2022-08-20T06:03:23;95463.81;;;16.55;100.00
26978;BME280;56314;48.088;11.642;2022-08-20T06:06:08;95460.69;;;16.60;100.00
26978;BME280;56314;48.088;11.642;2022-08-20T06:08:33;95464.56;;;16.66;100.00
26978;BME280;56314;48.088;11.642;2022-08-20T06:10:59;95473.19;;;16.68;100.00
26978;BME280;56314;48.088;11.642;2022-08-20T06:13:24;95473.34;;;16.66;100.00
26978;BME280;56314;48.088;11.642;2022-08-20T06:15:51;95475.69;;;16.69;100.00
26978;BME280;56314;48.088;11.642;2022-08-20T06:18:17;95478.41;;;16.77;100.00
26978;BME280;56314;48.088;11.642;2022-08-20T06:20:43;95485.75;;;16.84;100.00
26978;BME280;56314;48.088;11.642;2022-08-20T06:23:10;95480.28;;;16.85;100.00
26978;BME280;56314;48.088;11.642;2022-08-20T06:25:35;95482.09;;;16.85;100.00
26978;BME280;56314;48.088;11.642;2022-08-20T06:28:02;95482.88;;;16.95;100.00
26978;BME280;56314;48.088;11.642;2022-08-20T06:30:27;95480.75;;;16.99;100.00
26978;BME280;56314;48.088;11.642;2022-08-20T06:32:52;95480.88;;;16.97;100.00
26978;BME280;56314;48.088;11.642;2022-08-20T06:35:18;95484.06;;;17.01;100.00
26978;BME280;56314;48.088;11.642;2022-08-20T06:37:43;95485.78;;;17.10;100.00
26978;BME280;56314;48.088;11.642;2022-08-20T06:40:15;95487.44;;;17.11;100.00
26978;BME280;56314;48.088;11.642;2022-08-20T06:42:41;95489.63;;;17.16;100.00
26978;BME280;56314;48.088;11.642;2022-08-20T06:45:09;95485.69;;;17.20;100.00
26978;BME280;56314;48.088;11.642;2022-08-20T06:47:41;95481.38;;;17.27;100.00
26978;BME280;56314;48.088;11.642;2022-08-20T06:50:14;95484.88;;;17.28;100.00
26978;BME280;56314;48.088;11.642;2022-08-20T06:52:40;95487.88;;;17.33;100.00
26978;BME280;56314;48.088;11.642;2022-08-20T06:55:08;95492.88;;;17.36;100.00
26978;BME280;56314;48.088;11.642;2022-08-20T06:57:35;95484.75;;;17.37;100.00
26978;BME280;56314;48.088;11.642;2022-08-20T07:00:02;95497.50;;;17.34;100.00
26978;BME280;56314;48.088;11.642;2022-08-20T07:02:28;95492.81;;;17.28;100.00
26978;BME280;56314;48.088;11.642;2022-08-20T07:04:53;95495.00;;;17.32;100.00
26978;BME280;56314;48.088;11.642;2022-08-20T07:07:19;95494.59;;;17.45;100.00
26978;BME280;56314;48.088;11.642;2022-08-20T07:09:45;95495.56;;;17.44;100.00
26978;BME280;56314;48.088;11.642;2022-08-20T07:12:11;95501.19;;;17.41;100.00
26978;BME280;56314;48.088;11.642;2022-08-20T07:14:37;95504.84;;;17.40;100.00
26978;BME280;56314;48.088;11.642;2022-08-20T07:17:02;95505.19;;;17.45;100.00
26978;BME280;56314;48.088;11.642;2022-08-20T07:19:29;95501.56;;;17.46;100.00
26978;BME280;56314;48.088;11.642;2022-08-20T07:21:55;95511.88;;;17.49;100.00
26978;BME280;56314;48.088;11.642;2022-08-20T07:24:21;95504.91;;;17.48;100.00
26978;BME280;56314;48.088;11.642;2022-08-20T07:26:46;95513.16;;;17.45;100.00
26978;BME280;56314;48.088;11.642;2022-08-20T07:29:12;95513.69;;;17.49;100.00
26978;BME280;56314;48.088;11.642;2022-08-20T07:31:38;95516.84;;;17.52;100.00
26978;BME280;56314;48.088;11.642;2022-08-20T07:34:22;95516.84;;;17.52;100.00
26978;BME280;56314;48.088;11.642;2022-08-20T07:36:47;95515.06;;;17.61;100.00
26978;BME280;56314;48.088;11.642;2022-08-20T07:39:13;95506.41;;;17.59;100.00
26978;BME280;56314;48.088;11.642;2022-08-20T07:41:39;95512.91;;;17.65;100.00
26978;BME280;56314;48.088;11.642;2022-08-20T07:44:04;95516.41;;;17.65;100.00
26978;BME280;56314;48.088;11.642;2022-08-20T07:46:30;95521.38;;;17.68;100.00
26978;BME280;56314;48.088;11.642;2022-08-20T07:48:55;95522.22;;;17.61;100.00
26978;BME280;56314;48.088;11.642;2022-08-20T07:51:21;95525.19;;;17.66;100.00
26978;BME280;56314;48.088;11.642;2022-08-20T07:53:49;95527.03;;;17.65;100.00
26978;BME280;56314;48.088;11.642;2022-08-20T07:56:18;95531.00;;;17.69;100.00
26978;BME280;56314;48.088;11.642;2022-08-20T07:58:48;95526.19;;;17.65;100.00
26978;BME280;56314;48.088;11.642;2022-08-20T08:01:20;95529.69;;;17.65;100.00
26978;BME280;56314;48.088;11.642;2022-08-20T08:03:46;95528.69;;;17.66;100.00
26978;BME280;56314;48.088;11.642;2022-08-20T08:06:12;95531.69;;;17.72;100.00
26978;BME280;56314;48.088;11.642;2022-08-20T08:08:39;95530.38;;;17.67;100.00
26978;BME280;56314;48.088;11.642;2022-08-20T08:11:05;95524.56;;;17.72;100.00
26978;BME280;56314;48.088;11.642;2022-08-20T08:13:34;95524.22;;;17.75;100.00
26978;BME280;56314;48.088;11.642;2022-08-20T08:16:01;95523.59;;;17.73;100.00
26978;BME280;56314;48.088;11.642;2022-08-20T08:18:32;95528.56;;;17.76;100.00
26978;BME280;56314;48.088;11.642;2022-08-20T08:20:58;95525.09;;;17.76;100.00
26978;BME280;56314;48.088;11.642;2022-08-20T08:23:24;95522.75;;;17.73;100.00
26978;BME280;56314;48.088;11.642;2022-08-20T08:25:50;95533.38;;;17.73;100.00
26978;BME280;56314;48.088;11.642;2022-08-20T08:28:17;95532.84;;;17.69;100.00
26978;BME280;56314;48.088;11.642;2022-08-20T08:30:44;95533.16;;;17.66;100.00
26978;BME280;56314;48.088;11.642;2022-08-20T08:33:18;95547.28;;;17.66;100.00
26978;BME280;56314;48.088;11.642;2022-08-20T08:35:54;95535.69;;;17.67;100.00
26978;BME280;56314;48.088;11.642;2022-08-20T08:38:21;95536.19;;;17.71;100.00
26978;BME280;56314;48.088;11.642;2022-08-20T08:40:49;95542.78;;;17.67;100.00
26978;BME280;56314;48.088;11.642;2022-08-20T08:43:16;95537.31;;;17.68;100.00
26978;BME280;56314;48.088;11.642;2022-08-20T08:45:44;95544.50;;;17.76;100.00
26978;BME280;56314;48.088;11.642;2022-08-20T08:48:15;95541.50;;;17.71;100.00
26978;BME280;56314;48.088;11.642;2022-08-20T08:50:43;95547.13;;;17.68;100.00
26978;BME280;56314;48.088;11.642;2022-08-20T08:53:18;95552.75;;;17.65;100.00
26978;BME280;56314;48.088;11.642;2022-08-20T08:55:45;95553.09;;;17.62;100.00
26978;BME280;56314;48.088;11.642;2022-08-20T08:58:11;95559.00;;;17.56;100.00
26978;BME280;56314;48.088;11.642;2022-08-20T09:00:36;95550.56;;;17.60;100.00
26978;BME280;56314;48.088;11.642;2022-08-20T09:03:05;95559.22;;;17.62;100.00
26978;BME280;56314;48.088;11.642;2022-08-20T09:05:39;95555.41;;;17.65;100.00
26978;BME280;56314;48.088;11.642;2022-08-20T09:08:09;95555.88;;;17.60;100.00
26978;BME280;56314;48.088;11.642;2022-08-20T09:10:37;95561.34;;;17.59;100.00
26978;BME280;56314;48.088;11.642;2022-08-20T09:13:04;95559.31;;;17.52;100.00
26978;BME280;56314;48.088;11.642;2022-08-20T09:15:30;95564.50;;;17.54;100.00
26978;BME280;56314;48.088;11.642;2022-08-20T09:17:55;95564.16;;;17.57;100.00
26978;BME280;56314;48.088;11.642;2022-08-20T09:20:21;95564.50;;;17.54;100.00
26978;BME280;56314;48.088;11.642;2022-08-20T09:22:46;95565.63;;;17.51;100.00
26978;BME280;56314;48.088;11.642;2022-08-20T09:25:12;95569.47;;;17.57;100.00
26978;BME280;56314;48.088;11.642;2022-08-20T09:27:37;95574.47;;;17.60;100.00
26978;BME280;56314;48.088;11.642;2022-08-20T09:30:03;95573.47;;;17.61;100.00
26978;BME280;56314;48.088;11.642;2022-08-20T09:32:28;95569.00;;;17.62;100.00
26978;BME280;56314;48.088;11.642;2022-08-20T09:34:54;95565.19;;;17.64;100.00
26978;BME280;56314;48.088;11.642;2022-08-20T09:37:22;95569.66;;;17.64;100.00
26978;BME280;56314;48.088;11.642;2022-08-20T09:39:48;95557.84;;;17.58;100.00
26978;BME280;56314;48.088;11.642;2022-08-20T09:42:16;95569.63;;;17.56;100.00
26978;BME280;56314;48.088;11.642;2022-08-20T09:44:42;95563.50;;;17.55;100.00
26978;BME280;56314;48.088;11.642;2022-08-20T09:47:08;95565.81;;;17.58;100.00
26978;BME280;56314;48.088;11.642;2022-08-20T09:49:34;95554.56;;;17.64;100.00
26978;BME280;56314;48.088;11.642;2022-08-20T09:52:03;95567.06;;;17.72;100.00
26978;BME280;56314;48.088;11.642;2022-08-20T09:54:29;95562.09;;;17.77;100.00
26978;BME280;56314;48.088;11.642;2022-08-20T09:57:02;95556.94;;;17.76;100.00
26978;BME280;56314;48.088;11.642;2022-08-20T09:59:29;95552.34;;;17.86;100.00
26978;BME280;56314;48.088;11.642;2022-08-20T10:01:55;95550.56;;;17.95;100.00
26978;BME280;56314;48.088;11.642;2022-08-20T10:04:20;95555.75;;;18.05;100.00
26978;BME280;56314;48.088;11.642;2022-08-20T10:06:46;95555.94;;;18.11;100.00
26978;BME280;56314;48.088;11.642;2022-08-20T10:09:11;95555.63;;;18.14;100.00
26978;BME280;56314;48.088;11.642;2022-08-20T10:11:37;95552.66;;;18.26;100.00
26978;BME280;56314;48.088;11.642;2022-08-20T10:14:03;95552.66;;;18.26;100.00
26978;BME280;56314;48.088;11.642;2022-08-20T10:16:28;95556.66;;;18.30;100.00
26978;BME280;56314;48.088;11.642;2022-08-20T10:18:54;95555.31;;;18.26;100.00
26978;BME280;56314;48.088;11.642;2022-08-20T10:21:19;95556.47;;;18.23;100.00
26978;BME280;56314;48.088;11.642;2022-08-20T10:23:45;95550.81;;;18.18;100.00
26978;BME280;56314;48.088;11.642;2022-08-20T10:26:12;95554.00;;;18.22;100.00
26978;BME280;56314;48.088;11.642;2022-08-20T10:28:38;95546.16;;;18.20;100.00
26978;BME280;56314;48.088;11.642;2022-08-20T10:31:07;95551.16;;;18.23;100.00
26978;BME280;56314;48.088;11.642;2022-08-20T10:33:32;95548.34;;;18.25;100.00
26978;BME280;56314;48.088;11.642;2022-08-20T10:36:05;95551.47;;;18.20;100.00
26978;BME280;56314;48.088;11.642;2022-08-20T10:38:31;95553.81;;;18.23;100.00
26978;BME280;56314;48.088;11.642;2022-08-20T10:40:56;95549.69;;;18.29;100.00
26978;BME280;56314;48.088;11.642;2022-08-20T10:43:21;95557.34;;;18.32;100.00
26978;BME280;56314;48.088;11.642;2022-08-20T10:45:47;95547.03;;;18.37;100.00
26978;BME280;56314;48.088;11.642;2022-08-20T10:48:12;95552.53;;;18.44;100.00
26978;BME280;56314;48.088;11.642;2022-08-20T10:50:37;95551.38;;;18.46;100.00
26978;BME280;56314;48.088;11.642;2022-08-20T10:53:03;95550.38;;;18.48;100.00
26978;BME280;56314;48.088;11.642;2022-08-20T10:55:28;95548.06;;;18.53;100.00
26978;BME280;56314;48.088;11.642;2022-08-20T10:57:53;95555.06;;;18.62;100.00
26978;BME280;56314;48.088;11.642;2022-08-20T11:00:19;95545.09;;;18.64;100.00
26978;BME280;56314;48.088;11.642;2022-08-20T11:02:44;95551.22;;;18.65;100.00
26978;BME280;56314;48.088;11.642;2022-08-20T11:05:10;95551.06;;;18.66;100.00
26978;BME280;56314;48.088;11.642;2022-08-20T11:07:38;95547.41;;;18.67;100.00
26978;BME280;56314;48.088;11.642;2022-08-20T11:10:05;95545.91;;;18.65;100.00
26978;BME280;56314;48.088;11.642;2022-08-20T11:12:31;95539.09;;;18.62;100.00
26978;BME280;56314;48.088;11.642;2022-08-20T11:14:57;95548.09;;;18.69;100.00
26978;BME280;56314;48.088;11.642;2022-08-20T11:17:25;95536.59;;;18.69;100.00
26978;BME280;56314;48.088;11.642;2022-08-20T11:19:52;95533.63;;;18.64;100.00
26978;BME280;56314;48.088;11.642;2022-08-20T11:22:18;95533.28;;;18.67;100.00
26978;BME280;56314;48.088;11.642;2022-08-20T11:24:44;95539.25;;;18.69;100.00
26978;BME280;56314;48.088;11.642;2022-08-20T11:27:09;95539.59;;;18.66;100.00
26978;BME280;56314;48.088;11.642;2022-08-20T11:29:39;95533.63;;;18.64;100.00
26978;BME280;56314;48.088;11.642;2022-08-20T11:32:05;95539.44;;;18.67;100.00
26978;BME280;56314;48.088;11.642;2022-08-20T11:34:30;95540.25;;;18.51;100.00
26978;BME280;56314;48.088;11.642;2022-08-20T11:36:56;95535.91;;;18.42;100.00
26978;BME280;56314;48.088;11.642;2022-08-20T11:39:23;95531.09;;;18.37;100.00
26978;BME280;56314;48.088;11.642;2022-08-20T11:41:49;95540.41;;;18.33;100.00
26978;BME280;56314;48.088;11.642;2022-08-20T11:44:14;95540.66;;;18.13;100.00
26978;BME280;56314;48.088;11.642;2022-08-20T11:46:40;95532.19;;;18.02;97.94
26978;BME280;56314;48.088;11.642;2022-08-20T11:49:05;95529.53;;;18.02;95.15
26978;BME280;56314;48.088;11.642;2022-08-20T11:51:30;95529.91;;;18.15;100.00
26978;BME280;56314;48.088;11.642;2022-08-20T11:53:56;95532.25;;;18.26;100.00
26978;BME280;56314;48.088;11.642;2022-08-20T11:56:21;95530.59;;;18.34;99.78
26978;BME280;56314;48.088;11.642;2022-08-20T11:58:47;95525.13;;;18.43;99.97
26978;BME280;56314;48.088;11.642;2022-08-20T12:01:13;95529.63;;;18.59;98.13
26978;BME280;56314;48.088;11.642;2022-08-20T12:03:38;95525.28;;;18.67;97.28
26978;BME280;56314;48.088;11.642;2022-08-20T12:06:04;95531.63;;;18.74;97.29
26978;BME280;56314;48.088;11.642;2022-08-20T12:08:29;95533.66;;;18.97;100.00
26978;BME280;56314;48.088;11.642;2022-08-20T12:11:00;95539.97;;;18.96;99.03
26978;BME280;56314;48.088;11.642;2022-08-20T12:13:28;95536.63;;;19.02;98.79
26978;BME280;56314;48.088;11.642;2022-08-20T12:15:54;95538.44;;;19.10;98.26
26978;BME280;56314;48.088;11.642;2022-08-20T12:18:20;95531.66;;;18.99;95.88
26978;BME280;56314;48.088;11.642;2022-08-20T12:20:46;95541.31;;;19.00;96.03
26978;BME280;56314;48.088;11.642;2022-08-20T12:23:11;95539.78;;;18.97;96.60
26978;BME280;56314;48.088;11.642;2022-08-20T12:25:37;95540.25;;;18.92;95.68
26978;BME280;56314;48.088;11.642;2022-08-20T12:28:03;95537.63;;;18.84;95.18
26978;BME280;56314;48.088;11.642;2022-08-20T12:30:29;95537.78;;;18.74;96.12
26978;BME280;56314;48.088;11.642;2022-08-20T12:32:55;95539.75;;;18.72;98.98
26978;BME280;56314;48.088;11.642;2022-08-20T12:35:20;95533.44;;;18.73;100.00
26978;BME280;56314;48.088;11.642;2022-08-20T12:37:46;95535.63;;;18.70;100.00
26978;BME280;56314;48.088;11.642;2022-08-20T12:40:14;95534.97;;;18.76;100.00
26978;BME280;56314;48.088;11.642;2022-08-20T12:42:40;95539.44;;;18.75;100.00
26978;BME280;56314;48.088;11.642;2022-08-20T12:45:06;95528.47;;;18.87;100.00
26978;BME280;56314;48.088;11.642;2022-08-20T12:47:35;95524.19;;;18.94;97.97